| time (UTC) | temp C | wind direction | speed KPH | gust KPH | rain 1hr cm | rain 24hr cm | rain mn cm | humidity % | barometer mb |
| 20260906224544 | 16 | 246 | 12.9 | 20.9 | 0.00 | 0.18 | 0.00 | 80 | 1015.9 |
| 20260906223057 | 17 | 294 | 9.7 | 20.9 | 0.00 | 0.18 | 0.00 | 80 | 1015.9 |
| 20260906221553 | 16 | 311 | 8.0 | 16.1 | 0.00 | 0.18 | 0.00 | 81 | 1016.0 |
| 20260906220049 | 16 | 328 | 9.7 | 16.1 | 0.00 | 0.18 | 0.00 | 83 | 1015.9 |
| 20260906214544 | 15 | 324 | 6.4 | 14.5 | 0.00 | 0.18 | 0.00 | 84 | 1016.0 |
| 20260906213052 | 15 | 240 | 6.4 | 17.7 | 0.00 | 0.18 | 0.00 | 84 | 1016.1 |
| 20260906211552 | 15 | 239 | 8.0 | 16.1 | 0.00 | 0.18 | 0.00 | 83 | 1016.1 |
| 20260906210047 | 16 | 287 | 8.0 | 17.7 | 0.00 | 0.18 | 0.00 | 82 | 1016.1 |
| 20260906204543 | 16 | 320 | 9.7 | 19.3 | 0.00 | 0.18 | 0.00 | 81 | 1016.1 |
| 20260906203040 | 16 | 350 | 9.7 | 24.1 | 0.00 | 0.18 | 0.00 | 80 | 1016.1 |
| 20260906201550 | 16 | 241 | 11.3 | 22.5 | 0.00 | 0.18 | 0.00 | 78 | 1016.1 |
| 20260906200051 | 16 | 313 | 9.7 | 19.3 | 0.00 | 0.18 | 0.00 | 79 | 1016.3 |
| 20260906194542 | 16 | 319 | 8.0 | 20.9 | 0.00 | 0.18 | 0.00 | 78 | 1016.3 |
| 20260906193050 | 16 | 360 | 9.7 | 20.9 | 0.00 | 0.18 | 0.00 | 77 | 1016.1 |
| 20260906191556 | 16 | 355 | 12.9 | 27.4 | 0.00 | 0.18 | 0.00 | 78 | 1016.1 |
| 20260906190042 | 15 | 31 | 17.7 | 29.0 | 0.00 | 0.18 | 0.00 | 79 | 1016.3 |
| 20260906184559 | 15 | 346 | 14.5 | 25.7 | 0.00 | 0.18 | 0.00 | 79 | 1016.6 |
| 20260906183048 | 15 | 340 | 12.9 | 27.4 | 0.00 | 0.18 | 0.00 | 81 | 1016.8 |
| 20260906181550 | 14 | 16 | 19.3 | 27.4 | 0.00 | 0.18 | 0.00 | 86 | 1016.7 |
| 20260906180103 | 13 | 338 | 11.3 | 25.7 | 0.00 | 0.18 | 0.00 | 89 | 1017.6 |
| 20260906174552 | 13 | 360 | 14.5 | 24.1 | 0.00 | 0.18 | 0.00 | 89 | 1018.0 |
| 20260906173049 | 12 | 324 | 12.9 | 24.1 | 0.00 | 0.18 | 0.00 | 90 | 1018.2 |
| 20260906171543 | 12 | 295 | 11.3 | 27.4 | 0.00 | 0.18 | 0.00 | 91 | 1018.3 |
| 20260906170040 | 12 | 225 | 12.9 | 19.3 | 0.00 | 0.18 | 0.00 | 91 | 1018.3 |
| 20260906164554 | 12 | 332 | 11.3 | 20.9 | 0.00 | 0.18 | 0.00 | 91 | 1018.3 |
| 20260906163107 | 12 | 352 | 9.7 | 24.1 | 0.00 | 0.18 | 0.00 | 90 | 1018.1 |
| 20260906161543 | 12 | 335 | 12.9 | 24.1 | 0.00 | 0.18 | 0.00 | 89 | 1018.3 |
| 20260906160051 | 12 | 308 | 12.9 | 27.4 | 0.00 | 0.18 | 0.00 | 88 | 1018.5 |
| 20260906154547 | 13 | 308 | 16.1 | 25.7 | 0.00 | 0.18 | 0.00 | 87 | 1018.8 |
| 20260906153050 | 13 | 287 | 12.9 | 27.4 | 0.00 | 0.18 | 0.00 | 90 | 1018.5 |
| 20260906151542 | 13 | 331 | 9.7 | 20.9 | 0.00 | 0.18 | 0.00 | 90 | 1018.6 |
| 20260906150053 | 14 | 24 | 6.4 | 19.3 | 0.00 | 0.18 | 0.00 | 91 | 1018.7 |
| 20260906144547 | 13 | 40 | 8.0 | 14.5 | 0.00 | 0.20 | 0.00 | 92 | 1018.3 |
| 20260906143050 | 13 | 9 | 12.9 | 17.7 | 0.00 | 0.20 | 0.00 | 93 | 1018.6 |
| 20260906141551 | 13 | 336 | 6.4 | 17.7 | 0.00 | 0.20 | 0.00 | 94 | 1018.8 |
| 20260906140054 | 12 | 297 | 8.0 | 14.5 | 0.00 | 0.20 | 0.00 | 94 | 1018.8 |
| 20260906134542 | 12 | 338 | 8.0 | 19.3 | 0.00 | 0.20 | 0.00 | 94 | 1018.5 |
| 20260906133041 | 12 | 319 | 4.8 | 14.5 | 0.00 | 0.20 | 0.00 | 94 | 1018.5 |
| 20260906131610 | 12 | 355 | 4.8 | 12.9 | 0.00 | 0.20 | 0.00 | 94 | 1018.6 |
| 20260906130048 | 12 | 334 | 3.2 | 14.5 | 0.00 | 0.20 | 0.00 | 94 | 1018.8 |
| 20260906124548 | 12 | 13 | 4.8 | 16.1 | 0.00 | 0.20 | 0.00 | 94 | 1018.7 |
| 20260906123042 | 12 | 350 | 4.8 | 12.9 | 0.00 | 0.20 | 0.00 | 94 | 1018.8 |
| 20260906121550 | 12 | 325 | 6.4 | 16.1 | 0.00 | 0.20 | 0.00 | 94 | 1018.9 |
| 20260906120055 | 12 | 282 | 6.4 | 14.5 | 0.00 | 0.20 | 0.00 | 94 | 1019.1 |
| 20260906114541 | 12 | 326 | 6.4 | 14.5 | 0.00 | 0.20 | 0.00 | 94 | 1019.1 |
| 20260906113052 | 12 | 329 | 3.2 | 14.5 | 0.00 | 0.20 | 0.00 | 94 | 1019.1 |
| 20260906111546 | 12 | 347 | 6.4 | 17.7 | 0.00 | 0.20 | 0.00 | 94 | 1018.9 |
| 20260906110040 | 12 | 298 | 6.4 | 17.7 | 0.00 | 0.20 | 0.00 | 94 | 1018.9 |
| 20260906104542 | 12 | 355 | 4.8 | 19.3 | 0.00 | 0.20 | 0.00 | 94 | 1018.9 |
| 20260906103040 | 12 | 328 | 8.0 | 17.7 | 0.00 | 0.20 | 0.00 | 94 | 1019.3 |
| 20260906101553 | 12 | 5 | 6.4 | 19.3 | 0.00 | 0.20 | 0.00 | 93 | 1019.3 |
| 20260906100041 | 12 | 266 | 9.7 | 19.3 | 0.00 | 0.20 | 0.00 | 94 | 1019.1 |
| 20260906094541 | 12 | 5 | 8.0 | 25.7 | 0.00 | 0.20 | 0.00 | 94 | 1019.4 |
| 20260906093052 | 12 | 342 | 12.9 | 25.7 | 0.00 | 0.20 | 0.00 | 94 | 1019.5 |
| 20260906091548 | 12 | 345 | 12.9 | 22.5 | 0.00 | 0.20 | 0.00 | 94 | 1019.7 |
| 20260906090044 | 12 | 309 | 11.3 | 20.9 | 0.00 | 0.20 | 0.00 | 93 | 1019.9 |
| 20260906084550 | 12 | 322 | 12.9 | 24.1 | 0.00 | 0.20 | 0.00 | 93 | 1020.0 |
| 20260906083048 | 12 | 311 | 12.9 | 25.7 | 0.00 | 0.20 | 0.00 | 93 | 1019.9 |
| 20260906081548 | 12 | 345 | 11.3 | 24.1 | 0.00 | 0.20 | 0.00 | 93 | 1020.0 |
| 20260906080052 | 12 | 336 | 11.3 | 22.5 | 0.00 | 0.20 | 0.00 | 92 | 1020.0 |
| 20260906074558 | 12 | 335 | 11.3 | 22.5 | 0.00 | 0.20 | 0.00 | 92 | 1020.2 |
| 20260906073051 | 12 | 302 | 11.3 | 25.7 | 0.00 | 0.20 | 0.00 | 91 | 1020.3 |
| 20260906071549 | 12 | 336 | 12.9 | 25.7 | 0.00 | 0.20 | 0.00 | 91 | 1020.5 |
| 20260906070041 | 12 | 360 | 14.5 | 27.4 | 0.00 | 0.20 | 0.00 | 90 | 1020.8 |
| 20260906064540 | 12 | 321 | 12.9 | 24.1 | 0.00 | 0.20 | 0.00 | 91 | 1020.9 |
| 20260906063041 | 12 | 282 | 12.9 | 22.5 | 0.00 | 0.20 | 0.00 | 91 | 1021.1 |
| 20260906061542 | 12 | 329 | 9.7 | 22.5 | 0.05 | 0.20 | 0.00 | 90 | 1020.8 |
| 20260906060058 | 12 | 321 | 12.9 | 22.5 | 0.05 | 0.20 | 0.00 | 90 | 1020.8 |
| 20260906054549 | 12 | 348 | 14.5 | 25.7 | 0.05 | 0.20 | 0.20 | 89 | 1020.6 |
| 20260906053042 | 12 | 308 | 11.3 | 20.9 | 0.05 | 0.20 | 0.20 | 89 | 1020.6 |
| 20260906051556 | 12 | 302 | 14.5 | 20.9 | 0.00 | 0.15 | 0.15 | 88 | 1021.1 |
| 20260906050048 | 12 | 307 | 12.9 | 22.5 | 0.03 | 0.15 | 0.15 | 89 | 1020.7 |
| 20260906044546 | 12 | 270 | 12.9 | 22.5 | 0.13 | 0.15 | 0.15 | 88 | 1020.2 |
| 20260906043043 | 12 | 5 | 11.3 | 22.5 | 0.13 | 0.15 | 0.15 | 88 | 1020.0 |
| 20260906041550 | 13 | 336 | 9.7 | 20.9 | 0.13 | 0.15 | 0.15 | 86 | 1020.1 |
| 20260906040050 | 13 | 360 | 16.1 | 27.4 | 0.10 | 0.13 | 0.13 | 83 | 1020.4 |
| 20260906034542 | 14 | 236 | 17.7 | 25.7 | 0.00 | 0.03 | 0.03 | 75 | 1021.9 |
| 20260906033057 | 14 | 254 | 14.5 | 27.4 | 0.00 | 0.03 | 0.03 | 76 | 1019.8 |
| 20260906031544 | 13 | 360 | 12.9 | 22.5 | 0.00 | 0.03 | 0.03 | 75 | 1019.8 |
| 20260906030041 | 13 | 336 | 11.3 | 24.1 | 0.00 | 0.03 | 0.03 | 75 | 1019.5 |
| 20260906024550 | 14 | 308 | 12.9 | 24.1 | 0.00 | 0.03 | 0.03 | 73 | 1019.3 |
| 20260906023047 | 14 | 335 | 9.7 | 27.4 | 0.00 | 0.03 | 0.03 | 72 | 1019.1 |
| 20260906021545 | 15 | 348 | 11.3 | 24.1 | 0.00 | 0.03 | 0.03 | 70 | 1019.1 |
| 20260906020054 | 15 | 23 | 9.7 | 20.9 | 0.00 | 0.03 | 0.03 | 69 | 1019.2 |
| 20260906014552 | 15 | 11 | 11.3 | 20.9 | 0.00 | 0.03 | 0.03 | 68 | 1019.1 |
| 20260906013043 | 16 | 309 | 9.7 | 25.7 | 0.00 | 0.03 | 0.03 | 67 | 1019.0 |
| 20260906011540 | 16 | 338 | 11.3 | 27.4 | 0.00 | 0.03 | 0.03 | 66 | 1018.8 |
| 20260906010055 | 17 | 26 | 12.9 | 29.0 | 0.00 | 0.03 | 0.03 | 64 | 1018.9 |
| 20260906004546 | 17 | 341 | 14.5 | 27.4 | 0.00 | 0.03 | 0.03 | 63 | 1018.9 |
| 20260906003043 | 18 | 292 | 11.3 | 25.7 | 0.00 | 0.03 | 0.03 | 60 | 1018.7 |
| 20260906001553 | 19 | 309 | 14.5 | 27.4 | 0.00 | 0.03 | 0.03 | 57 | 1019.1 |
| 20260906000051 | 19 | 308 | 12.9 | 25.7 | 0.00 | 0.03 | 0.03 | 57 | 1019.1 |
| 20260905234548 | 20 | 286 | 9.7 | 24.1 | 0.00 | 0.03 | 0.03 | 56 | 1019.2 |
| 20260905233108 | 20 | 324 | 9.7 | 24.1 | 0.00 | 0.03 | 0.03 | 53 | 1019.1 |
| 20260905231555 | 20 | 42 | 11.3 | 20.9 | 0.00 | 0.03 | 0.03 | 52 | 1018.8 |
| 20260905230046 | 21 | 323 | 9.7 | 19.3 | 0.00 | 0.03 | 0.03 | 52 | 1018.8 |